Richibucto, Canada
Current Conditions -  °F | °C
As of 11:00 PM on Friday 21 Nov 2014 (Local Time) from CYQM Reporting Station
Clear Clear  
Wind Chill:   Ceiling: Unl
Heat Index: 18°   Visibility: 15mi
Dew Point:   Wind: 14mph
Humidity: 68%   Direction: 250°WSW
Pressure: 30.02"   Gusts: NA
Location:  46.68°N, 64.87°W
Report Text: CYQM 220300Z 25012KT 15SM SKC M08/M13 A3002 RMK SLP169
Loading
Personal Weather Stations






























Interactive Weather Map New forecast layout! Learn more

10-Day Weather Forecast

Advertisements
Track Severe Weather on mobile